Time;durP1;ratioP1;P1;durP2;ratioP2;P2;SDS_P1;SDS_P2;PMS_P1;PMS_P2;Temp;Humidity;BMP_temperature;BMP_pressure;BME280_temperature;BME280_humidity;BME280_pressure;Samples;Min_cycle;Max_cycle;Signal;HPM_P1;HPM_P2
2020/12/21 00:00:30;;;;;;;39.03;12.40;;;;;;;0.53;84.40;101954.43;1754915;80;21205;-66
2020/12/21 00:03:00;;;;;;;33.45;13.40;;;;;;;0.53;84.43;101959.63;1776170;80;21155;-67
2020/12/21 00:05:30;;;;;;;40.28;13.72;;;;;;;0.49;84.41;101957.96;1785525;80;21541;-66
2020/12/21 00:08:02;;;;;;;34.05;12.73;;;;;;;0.48;84.45;101953.61;1785535;80;21074;-66
2020/12/21 00:10:32;;;;;;;33.35;12.53;;;;;;;0.48;84.47;101954.91;1756189;81;22079;-65
2020/12/21 00:13:00;;;;;;;38.02;12.65;;;;;;;0.46;84.50;101950.18;1787372;79;21468;-65
2020/12/21 00:15:30;;;;;;;37.60;17.80;;;;;;;0.45;84.51;101946.72;1785565;80;21177;-65
2020/12/21 00:17:58;;;;;;;32.93;12.37;;;;;;;0.45;84.53;101946.72;1785420;80;21070;-66
2020/12/21 00:20:26;;;;;;;31.15;12.82;;;;;;;0.45;84.56;101948.02;1786543;79;21365;-65
2020/12/21 00:22:53;;;;;;;54.93;13.32;;;;;;;0.48;84.56;101944.52;1791706;79;22188;-65
2020/12/21 00:25:21;;;;;;;21.27;11.40;;;;;;;0.49;84.54;101943.22;1786688;79;21113;-67
2020/12/21 00:27:48;;;;;;;26.33;10.98;;;;;;;0.49;84.56;101941.06;1799041;79;21485;-66
2020/12/21 00:30:16;;;;;;;21.52;11.88;;;;;;;0.48;84.54;101944.11;1799012;78;21058;-66
2020/12/21 00:32:44;;;;;;;21.20;12.28;;;;;;;0.47;84.54;101946.25;1800867;78;21563;-66
2020/12/21 00:35:12;;;;;;;26.85;12.78;;;;;;;0.47;84.57;101943.66;1799031;79;22820;-66
2020/12/21 00:37:39;;;;;;;25.40;12.37;;;;;;;0.49;84.57;101953.62;1799932;78;21076;-67
2020/12/21 00:40:07;;;;;;;25.65;12.33;;;;;;;0.50;84.61;101948.84;1799117;78;21365;-66
2020/12/21 00:42:35;;;;;;;23.15;12.63;;;;;;;0.53;84.61;101949.23;1803437;78;21176;-67
2020/12/21 00:45:04;;;;;;;22.98;12.20;;;;;;;0.53;84.61;101944.89;1831544;78;21108;-66
2020/12/21 00:47:33;;;;;;;27.77;12.55;;;;;;;0.54;84.60;101940.11;1831606;78;22047;-67
2020/12/21 00:50:01;;;;;;;25.10;11.55;;;;;;;0.55;84.57;101948.77;1813642;78;21062;-66
2020/12/21 00:52:29;;;;;;;22.85;12.25;;;;;;;0.54;84.58;101946.61;1798896;79;21077;-66
2020/12/21 00:54:58;;;;;;;17.85;10.53;;;;;;;0.53;84.60;101946.19;1801909;78;21061;-66
2020/12/21 00:57:32;;;;;;;18.07;12.13;;;;;;;0.53;84.59;101945.33;1798911;79;21046;-66
2020/12/21 01:00:00;;;;;;;21.90;11.65;;;;;;;0.50;84.61;101950.14;1816116;78;22098;-66
2020/12/21 01:02:29;;;;;;;27.10;14.23;;;;;;;0.49;84.60;101954.06;1831494;78;21072;-66
2020/12/21 01:04:57;;;;;;;30.37;13.78;;;;;;;0.49;84.61;101958.82;1828899;78;21082;-66
2020/12/21 01:07:26;;;;;;;29.02;15.00;;;;;;;0.50;84.61;101955.78;1831771;78;21053;-66
2020/12/21 01:09:54;;;;;;;33.18;15.43;;;;;;;0.48;84.60;101951.91;1820384;78;21382;-66
2020/12/21 01:12:21;;;;;;;42.55;16.77;;;;;;;0.49;84.63;101951.46;1800068;78;22059;-66
2020/12/21 01:14:51;;;;;;;39.63;17.27;;;;;;;0.48;84.63;101951.91;1798947;78;21066;-66
2020/12/21 01:17:19;;;;;;;45.28;17.60;;;;;;;0.48;84.66;101950.60;1826525;78;21062;-66
2020/12/21 01:19:46;;;;;;;37.38;16.40;;;;;;;0.49;84.67;101949.72;1830671;78;22587;-66
2020/12/21 01:22:14;;;;;;;48.35;12.88;;;;;;;0.50;84.66;101954.48;1831763;78;21089;-66
2020/12/21 01:24:42;;;;;;;32.95;11.68;;;;;;;0.50;84.65;101956.64;1831648;78;21880;-66
2020/12/21 01:27:10;;;;;;;17.32;9.93;;;;;;;0.49;84.64;101954.92;1821765;78;22466;-66
2020/12/21 01:29:37;;;;;;;16.32;9.95;;;;;;;0.48;84.63;101963.60;1797146;78;21072;-66
2020/12/21 01:32:05;;;;;;;14.95;9.43;;;;;;;0.45;84.62;101957.56;1796015;80;21362;-66
2020/12/21 01:34:33;;;;;;;13.83;8.58;;;;;;;0.44;84.62;101955.84;1795979;80;21133;-67
2020/12/21 01:37:00;;;;;;;13.35;8.80;;;;;;;0.42;84.64;101951.11;1797913;78;22070;-67
2020/12/21 01:39:29;;;;;;;13.25;8.50;;;;;;;0.43;84.63;101958.02;1816090;78;21133;-66
2020/12/21 01:41:57;;;;;;;12.15;8.20;;;;;;;0.41;84.62;101956.75;1795947;80;21049;-67
2020/12/21 01:44:25;;;;;;;11.33;8.00;;;;;;;0.38;84.61;101948.97;1795862;80;21081;-66
2020/12/21 01:46:52;;;;;;;11.28;7.53;;;;;;;0.38;84.62;101954.16;1804168;78;21125;-66
2020/12/21 01:49:22;;;;;;;11.73;8.20;;;;;;;0.39;84.60;101950.72;1828498;78;21889;-66
2020/12/21 01:51:49;;;;;;;12.80;8.68;;;;;;;0.40;84.56;101945.08;1828410;78;21097;-67
2020/12/21 01:54:17;;;;;;;11.20;7.83;;;;;;;0.40;84.58;101942.03;1828497;78;21054;-66
2020/12/21 01:56:45;;;;;;;12.68;8.83;;;;;;;0.40;84.54;101942.03;1826116;78;21457;-65
2020/12/21 01:59:12;;;;;;;11.97;9.20;;;;;;;0.38;84.52;101941.17;1798919;78;21153;-66
2020/12/21 02:01:40;;;;;;;10.80;8.10;;;;;;;0.33;84.51;101939.08;1827247;78;22060;-66
2020/12/21 02:04:07;;;;;;;15.40;10.35;;;;;;;0.33;84.51;101940.38;1822933;78;21086;-66
2020/12/21 02:06:36;;;;;;;14.07;10.03;;;;;;;0.32;84.47;101942.56;1827663;78;21075;-66
2020/12/21 02:09:05;;;;;;;14.58;10.43;;;;;;;0.31;84.45;101936.95;1764438;81;21049;-66
2020/12/21 02:11:33;;;;;;;13.35;9.80;;;;;;;0.30;84.44;101933.08;1787802;80;21130;-66
2020/12/21 02:14:00;;;;;;;16.02;10.78;;;;;;;0.30;84.44;101937.83;1795913;80;22172;-66
2020/12/21 02:16:28;;;;;;;13.72;9.45;;;;;;;0.31;84.45;101939.55;1795851;80;22537;-66
2020/12/21 02:18:55;;;;;;;15.35;10.23;;;;;;;0.32;84.42;101935.20;1796853;78;21095;-66
2020/12/21 02:21:23;;;;;;;16.37;10.65;;;;;;;0.27;84.38;101937.41;1795904;80;21122;-66
2020/12/21 02:23:51;;;;;;;15.63;10.80;;;;;;;0.27;84.38;101937.84;1795895;80;21142;-66
2020/12/21 02:26:18;;;;;;;15.68;9.53;;;;;;;0.26;84.42;101942.63;1814652;78;22067;-66
2020/12/21 02:28:54;;;;;;;15.28;10.10;;;;;;;0.27;84.38;101949.54;1802369;78;21090;-66
2020/12/21 02:31:22;;;;;;;18.52;10.00;;;;;;;0.26;84.38;101946.52;1798941;79;21138;-66
2020/12/21 02:33:50;;;;;;;16.85;10.40;;;;;;;0.26;84.37;101945.22;1798956;79;21048;-66
2020/12/21 02:36:18;;;;;;;21.40;11.22;;;;;;;0.20;84.37;101939.67;1800080;78;21474;-66
2020/12/21 02:38:46;;;;;;;18.12;10.60;;;;;;;0.21;84.39;101947.03;1793000;79;22092;-66
2020/12/21 02:41:15;;;;;;;18.12;9.40;;;;;;;0.22;84.41;101945.70;1815415;79;21162;-66
2020/12/21 02:43:44;;;;;;;25.17;10.93;;;;;;;0.23;84.43;101946.56;1783299;80;21111;-66
2020/12/21 02:46:14;;;;;;;26.15;11.68;;;;;;;0.23;84.44;101947.42;1797401;78;21626;-66
2020/12/21 02:48:46;;;;;;;28.98;10.28;;;;;;;0.24;84.41;101952.19;1799165;78;21140;-66
2020/12/21 02:51:16;;;;;;;21.57;9.83;;;;;;;0.23;84.43;101950.47;1799249;79;22957;-66
2020/12/21 02:53:44;;;;;;;20.82;10.38;;;;;;;0.23;84.42;101951.33;1799989;78;21161;-66
2020/12/21 02:56:12;;;;;;;23.12;11.85;;;;;;;0.23;84.44;101953.06;1798881;79;21548;-66
2020/12/21 02:58:40;;;;;;;24.12;10.50;;;;;;;0.22;84.46;101954.80;1824820;77;21105;-66
2020/12/21 03:01:08;;;;;;;25.77;10.43;;;;;;;0.21;84.45;101953.09;1831708;78;21037;-66
2020/12/21 03:03:35;;;;;;;27.15;10.65;;;;;;;0.20;84.49;101942.72;1827374;78;24209;-66
2020/12/21 03:06:03;;;;;;;21.57;10.32;;;;;;;0.19;84.50;101941.86;1826849;78;21133;-66
2020/12/21 03:08:31;;;;;;;22.85;11.78;;;;;;;0.21;84.48;101944.44;1807333;78;21121;-66
2020/12/21 03:10:59;;;;;;;29.85;10.25;;;;;;;0.20;84.50;101948.77;1815551;78;21069;-66
2020/12/21 03:13:27;;;;;;;30.60;11.30;;;;;;;0.21;84.52;101948.33;1800528;78;21062;-66
2020/12/21 03:15:54;;;;;;;20.88;10.03;;;;;;;0.20;84.52;101951.37;1821691;78;22060;-66
2020/12/21 03:18:22;;;;;;;30.23;11.70;;;;;;;0.20;84.54;101950.52;1798868;79;21129;-66
2020/12/21 03:20:49;;;;;;;34.18;11.73;;;;;;;0.20;84.57;101954.41;1798960;79;21505;-66
2020/12/21 03:23:17;;;;;;;27.58;11.68;;;;;;;0.21;84.57;101953.53;1813677;78;22693;-65
2020/12/21 03:25:45;;;;;;;29.10;12.37;;;;;;;0.22;84.55;101963.04;1816040;78;21141;-65
2020/12/21 03:28:12;;;;;;;29.90;11.00;;;;;;;0.22;84.57;101957.84;1813493;78;22041;-66
2020/12/21 03:30:43;;;;;;;28.17;11.12;;;;;;;0.22;84.57;101953.95;1823354;78;21924;-65
2020/12/21 03:33:11;;;;;;;24.57;11.48;;;;;;;0.22;84.58;101961.74;1831611;78;21157;-64
2020/12/21 03:35:39;;;;;;;40.00;12.28;;;;;;;0.22;84.60;101961.74;1829290;78;21469;-64
2020/12/21 03:38:06;;;;;;;54.10;13.88;;;;;;;0.23;84.60;101967.36;1823036;78;21046;-65
2020/12/21 03:40:34;;;;;;;42.40;13.15;;;;;;;0.19;84.62;101964.35;1805371;78;22145;-65
2020/12/21 03:43:01;;;;;;;47.75;12.60;;;;;;;0.18;84.66;101967.39;1813406;78;21413;-65
2020/12/21 03:45:30;;;;;;;53.20;13.03;;;;;;;0.19;84.66;101967.84;1801950;78;21061;-64
2020/12/21 03:47:59;;;;;;;42.08;13.35;;;;;;;0.18;84.67;101968.69;1802387;78;21129;-65
2020/12/21 03:50:26;;;;;;;62.45;12.70;;;;;;;0.19;84.68;101964.35;1800954;78;21049;-65
2020/12/21 03:52:54;;;;;;;44.55;11.45;;;;;;;0.18;84.68;101966.09;1801179;78;21895;-65
2020/12/21 03:55:22;;;;;;;50.67;9.55;;;;;;;0.16;84.69;101964.39;1821898;78;21540;-64
2020/12/21 03:57:49;;;;;;;48.40;10.55;;;;;;;0.14;84.73;101962.27;1800854;78;21074;-65
2020/12/21 04:00:17;;;;;;;47.30;10.93;;;;;;;0.12;84.72;101960.98;1823350;78;21057;-65
2020/12/21 04:02:44;;;;;;;66.28;11.63;;;;;;;0.13;84.77;101956.64;1827576;78;21137;-64
2020/12/21 04:05:13;;;;;;;31.97;9.25;;;;;;;0.13;84.79;101959.24;1822268;78;21896;-64
2020/12/21 04:07:40;;;;;;;52.08;10.58;;;;;;;0.12;84.82;101955.78;1767237;79;21160;-65
2020/12/21 04:10:08;;;;;;;47.00;11.55;;;;;;;0.08;84.82;101954.52;1798881;79;21362;-64
2020/12/21 04:12:37;;;;;;;43.75;10.58;;;;;;;0.06;84.84;101953.69;1765648;80;21151;-65
2020/12/21 04:15:06;;;;;;;56.40;12.63;;;;;;;0.05;84.84;101955.42;1796536;79;21058;-65
2020/12/21 04:17:33;;;;;;;42.40;13.70;;;;;;;0.06;84.88;101962.78;1796706;79;22934;-65
2020/12/21 04:20:01;;;;;;;65.65;15.18;;;;;;;0.08;84.89;101957.12;1803765;78;21090;-65
2020/12/21 04:22:29;;;;;;;54.13;18.02;;;;;;;0.08;84.90;101952.78;1803238;78;21379;-65
2020/12/21 04:24:57;;;;;;;57.58;22.42;;;;;;;0.03;84.86;101953.29;1831551;78;21043;-65
2020/12/21 04:27:25;;;;;;;70.20;22.87;;;;;;;-0.03;84.86;101951.59;1795316;78;21097;-65
2020/12/21 04:29:52;;;;;;;65.55;25.62;;;;;;;-0.04;84.87;101954.22;1753392;81;23015;-65
2020/12/21 04:32:20;;;;;;;54.33;22.22;;;;;;;-0.05;84.90;101951.20;1756887;80;22592;-66
2020/12/21 04:34:47;;;;;;;63.25;26.97;;;;;;;-0.05;84.91;101953.36;1755583;79;21061;-66
2020/12/21 04:37:15;;;;;;;50.65;19.52;;;;;;;-0.06;84.90;101954.23;1784068;79;21078;-66
2020/12/21 04:39:43;;;;;;;57.03;22.17;;;;;;;-0.06;84.92;101958.58;1762544;80;21108;-66
2020/12/21 04:42:10;;;;;;;66.57;25.45;;;;;;;-0.12;84.90;101962.08;1759472;80;21900;-65
2020/12/21 04:44:39;;;;;;;56.60;21.73;;;;;;;-0.17;84.92;101963.02;1776687;80;21061;-66
2020/12/21 04:47:06;;;;;;;71.07;26.10;;;;;;;-0.22;84.90;101961.75;1784559;80;21133;-65
2020/12/21 04:49:34;;;;;;;64.95;24.77;;;;;;;-0.23;84.90;101965.23;1730404;80;21116;-65
2020/12/21 04:52:07;;;;;;;68.92;25.45;;;;;;;-0.22;84.91;101975.17;1781125;80;21132;-66
2020/12/21 04:54:34;;;;;;;80.42;26.48;;;;;;;-0.20;84.97;101970.38;1754684;80;22926;-65
2020/12/21 04:57:02;;;;;;;60.50;24.52;;;;;;;-0.18;84.97;101967.80;1753215;81;21131;-65
2020/12/21 04:59:30;;;;;;;58.58;24.15;;;;;;;-0.21;84.98;101960.88;1759494;80;21065;-65
2020/12/21 05:01:57;;;;;;;54.73;24.18;;;;;;;-0.25;84.95;101967.42;1769341;80;21052;-66
2020/12/21 05:04:25;;;;;;;49.08;23.30;;;;;;;-0.33;84.95;101967.48;1753511;80;21108;-67
2020/12/21 05:06:55;;;;;;;53.23;25.80;;;;;;;-0.36;84.92;101974.02;1753537;80;22068;-67
2020/12/21 05:09:25;;;;;;;55.45;26.93;;;;;;;-0.41;84.93;101968.84;1754479;80;21108;-67
2020/12/21 05:12:03;;;;;;;44.85;23.18;;;;;;;-0.42;84.91;101973.61;1755259;80;21164;-68
2020/12/21 05:14:35;;;;;;;46.83;23.83;;;;;;;-0.43;84.87;101969.73;1753526;81;21057;-67
2020/12/21 05:17:14;;;;;;;42.85;22.77;;;;;;;-0.48;84.76;101968.91;1753554;81;21120;-67
2020/12/21 05:19:43;;;;;;;42.23;21.55;;;;;;;-0.50;84.72;101968.92;1749458;81;22057;-66
2020/12/21 05:22:15;;;;;;;39.13;20.92;;;;;;;-0.51;84.60;101971.09;1753409;81;21175;-66
2020/12/21 05:24:44;;;;;;;40.95;21.77;;;;;;;-0.56;84.42;101965.53;1753644;80;21072;-67
2020/12/21 05:27:16;;;;;;;37.10;21.60;;;;;;;-0.60;84.32;101985.44;1772546;79;21193;-67
2020/12/21 05:29:55;;;;;;;37.90;21.60;;;;;;;-0.62;84.29;101998.43;1804552;78;21356;-67
2020/12/21 05:32:22;;;;;;;46.18;26.87;;;;;;;-0.62;84.26;101998.43;1798960;79;22766;-68
2020/12/21 05:34:50;;;;;;;39.75;22.45;;;;;;;-0.60;84.25;101997.97;1798978;79;21197;-66
2020/12/21 05:37:20;;;;;;;39.65;22.35;;;;;;;-0.57;84.26;102001.45;1789793;79;21062;-66
2020/12/21 05:39:55;;;;;;;41.88;23.27;;;;;;;-0.55;84.27;102004.88;1792600;79;21521;-66
2020/12/21 05:42:23;;;;;;;36.63;20.95;;;;;;;-0.51;84.26;101997.48;1812656;79;21090;-65
2020/12/21 05:44:58;;;;;;;32.78;19.17;;;;;;;-0.46;84.26;102010.01;1811479;79;22028;-67
2020/12/21 05:47:28;;;;;;;32.35;19.77;;;;;;;-0.46;84.22;102003.52;1812630;79;21059;-67
2020/12/21 05:50:02;;;;;;;31.02;19.70;;;;;;;-0.46;84.17;102006.11;1762620;79;21335;-68
2020/12/21 05:52:35;;;;;;;31.33;19.80;;;;;;;-0.49;84.08;102004.38;1812805;79;21046;-66
2020/12/21 05:55:10;;;;;;;28.23;16.82;;;;;;;-0.51;84.01;102011.77;1812841;79;21133;-66
2020/12/21 05:57:39;;;;;;;34.63;19.98;;;;;;;-0.51;83.97;102011.77;1812654;79;23025;-66
2020/12/21 06:00:10;;;;;;;29.12;17.98;;;;;;;-0.55;83.88;102012.67;1811474;79;21201;-66
2020/12/21 06:02:37;;;;;;;30.48;18.50;;;;;;;-0.60;83.69;102017.44;1812686;79;21063;-67
2020/12/21 06:05:14;;;;;;;31.42;18.85;;;;;;;-0.68;83.48;102017.06;1803804;79;21050;-67
2020/12/21 06:07:49;;;;;;;32.78;19.55;;;;;;;-0.73;83.40;102020.14;1799065;79;21129;-67
2020/12/21 06:10:17;;;;;;;32.93;19.60;;;;;;;-0.76;83.34;102021.47;1814315;78;22110;-67
2020/12/21 06:12:47;;;;;;;31.40;18.85;;;;;;;-0.76;83.32;102024.06;1831661;78;21121;-67
2020/12/21 06:15:18;;;;;;;30.57;17.57;;;;;;;-0.77;83.27;102028.80;1824248;78;21108;-68
2020/12/21 06:17:46;;;;;;;28.27;17.30;;;;;;;-0.79;83.23;102031.41;1818677;78;21334;-68
2020/12/21 06:20:15;;;;;;;27.17;16.95;;;;;;;-0.82;83.05;102037.92;1798012;79;21053;-68
2020/12/21 06:22:56;;;;;;;30.12;18.73;;;;;;;-0.84;82.96;102029.73;1804307;78;21539;-66
2020/12/21 06:25:24;;;;;;;23.52;14.03;;;;;;;-0.89;82.85;102030.59;1768370;79;21061;-66
2020/12/21 06:27:53;;;;;;;21.45;13.25;;;;;;;-0.88;82.84;102033.61;1767485;81;21088;-67
2020/12/21 06:30:31;;;;;;;22.85;14.68;;;;;;;-0.92;82.52;102038.84;1735921;81;21188;-67
2020/12/21 06:33:03;;;;;;;28.80;15.55;;;;;;;-1.02;82.29;102040.63;1762630;81;21183;-66
2020/12/21 06:35:42;;;;;;;26.10;16.40;;;;;;;-1.08;82.16;102039.78;1782568;80;21902;-67
2020/12/21 06:38:10;;;;;;;20.88;12.60;;;;;;;-1.11;82.05;102044.98;1767146;79;21106;-66
2020/12/21 06:40:38;;;;;;;18.90;12.20;;;;;;;-1.13;82.00;102047.59;1746017;80;21167;-67
2020/12/21 06:43:14;;;;;;;22.85;13.43;;;;;;;-1.18;81.70;102047.59;1795339;80;21179;-66
2020/12/21 06:45:43;;;;;;;17.98;9.83;;;;;;;-1.20;81.60;102043.30;1795334;79;21162;-68
2020/12/21 06:48:14;;;;;;;23.18;12.80;;;;;;;-1.24;81.18;102049.38;1768680;80;22682;-68
2020/12/21 06:50:43;;;;;;;14.30;9.40;;;;;;;-1.27;81.05;102049.37;1738972;81;21087;-67
2020/12/21 06:53:11;;;;;;;17.40;11.45;;;;;;;-1.28;80.99;102047.64;1764808;80;21117;-67
2020/12/21 06:55:39;;;;;;;19.35;11.57;;;;;;;-1.28;80.94;102050.23;1738388;81;21492;-67
2020/12/21 06:58:07;;;;;;;14.50;9.05;;;;;;;-1.29;80.80;102045.92;1763900;81;21074;-67
2020/12/21 07:00:35;;;;;;;17.15;10.45;;;;;;;-1.32;80.61;102048.10;1763889;81;22111;-67
2020/12/21 07:03:03;;;;;;;15.70;10.15;;;;;;;-1.34;80.31;102055.46;1763887;81;21090;-67
2020/12/21 07:05:32;;;;;;;14.68;9.48;;;;;;;-1.37;80.09;102053.72;1763865;81;21125;-67
2020/12/21 07:08:00;;;;;;;17.60;10.88;;;;;;;-1.38;80.01;102048.55;1776089;80;21137;-67
2020/12/21 07:10:31;;;;;;;14.87;9.00;;;;;;;-1.41;79.72;102048.56;1763842;81;21061;-67
2020/12/21 07:12:58;;;;;;;17.62;11.90;;;;;;;-1.44;79.62;102053.34;1763915;81;22053;-66
2020/12/21 07:15:26;;;;;;;18.27;10.30;;;;;;;-1.46;79.52;102051.16;1763459;81;21652;-67
2020/12/21 07:17:54;;;;;;;19.15;12.10;;;;;;;-1.47;79.44;102052.89;1783344;80;21137;-66
2020/12/21 07:20:23;;;;;;;19.45;13.13;;;;;;;-1.47;79.46;102052.89;1763870;81;21102;-66
2020/12/21 07:22:52;;;;;;;16.60;11.03;;;;;;;-1.41;79.48;102045.98;1757497;80;21584;-67
2020/12/21 07:25:23;;;;;;;16.23;10.90;;;;;;;-1.37;79.53;102047.24;1757033;80;21854;-66
2020/12/21 07:27:49;;;;;;;17.62;10.98;;;;;;;-1.31;79.48;102047.23;1757091;80;21176;-66
2020/12/21 07:30:22;;;;;;;19.35;11.75;;;;;;;-1.28;79.42;102037.28;1755998;81;21346;-66
2020/12/21 07:32:49;;;;;;;19.25;11.22;;;;;;;-1.24;79.42;102043.75;1762172;80;21172;-65
2020/12/21 07:35:17;;;;;;;18.65;12.28;;;;;;;-1.20;79.35;102038.11;1761356;80;21339;-67
2020/12/21 07:37:46;;;;;;;16.20;10.13;;;;;;;-1.20;79.24;102036.38;1770866;80;22162;-66
2020/12/21 07:40:22;;;;;;;18.37;12.03;;;;;;;-1.18;79.14;102036.37;1756007;81;21548;-66
2020/12/21 07:42:50;;;;;;;15.05;10.10;;;;;;;-1.17;79.03;102035.49;1776597;80;21145;-66
2020/12/21 07:45:18;;;;;;;20.37;12.05;;;;;;;-1.18;78.94;102035.93;1750267;81;21074;-66
2020/12/21 07:47:46;;;;;;;18.82;12.00;;;;;;;-1.17;78.89;102030.31;1730639;81;21078;-65
2020/12/21 07:50:13;;;;;;;19.42;12.85;;;;;;;-1.18;78.86;102033.34;1756036;81;22069;-67
2020/12/21 07:52:42;;;;;;;17.87;11.38;;;;;;;-1.17;78.84;102028.58;1783253;80;21145;-67
2020/12/21 07:55:11;;;;;;;18.35;10.98;;;;;;;-1.19;78.62;102029.02;1763398;80;21109;-66
2020/12/21 07:57:39;;;;;;;19.37;11.45;;;;;;;-1.24;78.36;102032.09;1774322;80;21216;-68
2020/12/21 08:00:07;;;;;;;16.07;9.48;;;;;;;-1.28;78.28;102030.36;1770306;80;21390;-67
2020/12/21 08:02:35;;;;;;;15.32;9.50;;;;;;;-1.29;78.26;102035.12;1756023;81;21902;-67
2020/12/21 08:05:03;;;;;;;17.50;11.65;;;;;;;-1.27;78.06;102032.52;1730799;80;21086;-67
2020/12/21 08:07:33;;;;;;;15.40;10.20;;;;;;;-1.27;77.85;102032.52;1756018;81;21548;-67
2020/12/21 08:10:00;;;;;;;13.05;9.20;;;;;;;-1.26;77.69;102032.50;1756048;81;21153;-67
2020/12/21 08:12:32;;;;;;;17.52;11.57;;;;;;;-1.26;77.38;102041.58;1782083;80;21003;-67
2020/12/21 08:15:00;;;;;;;15.18;9.88;;;;;;;-1.26;77.33;102040.28;1787181;80;22068;-68
2020/12/21 08:17:30;;;;;;;14.98;10.00;;;;;;;-1.23;77.22;102043.32;1781412;80;21303;-66
2020/12/21 08:19:59;;;;;;;16.02;11.03;;;;;;;-1.22;77.08;102038.56;1787293;80;21335;-66
2020/12/21 08:22:29;;;;;;;16.77;11.78;;;;;;;-1.21;77.09;102041.14;1783322;80;38520;-66
2020/12/21 08:25:11;;;;;;;16.55;10.43;;;;;;;-1.17;77.02;102040.68;1755242;81;21358;-66
2020/12/21 08:27:50;;;;;;;18.23;12.05;;;;;;;-1.12;77.02;102039.38;1755370;81;21854;-67
2020/12/21 08:30:23;;;;;;;16.37;10.75;;;;;;;-1.11;76.76;102046.28;1755141;80;21083;-66
2020/12/21 08:32:52;;;;;;;13.13;9.28;;;;;;;-1.08;76.87;102050.16;1756354;80;21148;-67
2020/12/21 08:35:28;;;;;;;18.05;11.80;;;;;;;-1.05;76.76;102043.67;1755201;81;21141;-67
2020/12/21 08:38:14;;;;;;;14.35;9.58;;;;;;;-1.04;76.76;102035.02;1755202;81;21070;-67
2020/12/21 08:40:41;;;;;;;19.00;11.73;;;;;;;-0.99;76.71;102039.73;1785900;80;21976;-66
2020/12/21 08:43:09;;;;;;;18.42;11.68;;;;;;;-0.98;76.59;102037.56;1756118;80;21184;-66
2020/12/21 08:45:38;;;;;;;13.15;8.88;;;;;;;-0.96;76.53;102043.63;1786385;80;21482;-66
2020/12/21 08:48:06;;;;;;;19.37;10.85;;;;;;;-0.95;76.27;102042.33;1786326;80;21473;-66
2020/12/21 08:50:35;;;;;;;13.68;9.78;;;;;;;-1.00;76.07;102027.20;1776027;80;21466;-66
2020/12/21 08:53:03;;;;;;;17.82;11.83;;;;;;;-1.01;76.14;102034.56;1777652;80;22081;-66
2020/12/21 08:55:30;;;;;;;16.20;10.60;;;;;;;-0.99;76.20;102033.25;1786247;80;21144;-67
2020/12/21 08:57:58;;;;;;;13.85;9.68;;;;;;;-0.95;76.17;102024.61;1772753;79;21061;-66
2020/12/21 09:00:26;;;;;;;15.30;9.13;;;;;;;-0.96;76.06;102025.48;1755204;81;21074;-67
2020/12/21 09:02:55;;;;;;;14.68;10.03;;;;;;;-1.03;75.75;102020.75;1755737;80;21077;-67
2020/12/21 09:05:24;;;;;;;14.07;8.78;;;;;;;-1.12;75.71;102017.34;1776735;80;21907;-67
2020/12/21 09:07:52;;;;;;;11.45;7.30;;;;;;;-1.16;75.88;102019.06;1774267;80;21126;-69
2020/12/21 09:10:19;;;;;;;12.70;8.18;;;;;;;-1.17;75.92;102016.91;1784920;80;21616;-68
2020/12/21 09:12:47;;;;;;;12.95;9.18;;;;;;;-1.18;75.89;102013.03;1786368;80;21063;-67
2020/12/21 09:15:14;;;;;;;17.55;10.72;;;;;;;-1.15;75.96;102018.23;1786337;80;21466;-67
2020/12/21 09:17:43;;;;;;;15.48;8.73;;;;;;;-1.12;75.95;102013.45;1786292;80;22056;-67
2020/12/21 09:20:11;;;;;;;13.43;9.45;;;;;;;-1.10;75.95;102015.59;1782648;80;21154;-67
2020/12/21 09:22:39;;;;;;;14.18;9.20;;;;;;;-1.11;75.83;102017.77;1760370;80;21604;-67
2020/12/21 09:25:07;;;;;;;13.38;8.68;;;;;;;-1.13;75.70;102015.62;1748881;81;21058;-66
2020/12/21 09:27:35;;;;;;;12.05;8.60;;;;;;;-1.13;75.83;102018.22;1738125;81;21062;-66
2020/12/21 09:30:05;;;;;;;10.18;7.00;;;;;;;-1.10;75.89;102018.19;1737201;81;21949;-66
2020/12/21 09:32:32;;;;;;;12.80;8.60;;;;;;;-1.16;75.56;102017.36;1726570;83;21089;-66
2020/12/21 09:35:00;;;;;;;10.30;7.47;;;;;;;-1.19;75.51;102013.91;1750998;81;21121;-66
2020/12/21 09:37:30;;;;;;;10.35;7.87;;;;;;;-1.25;75.37;102012.22;1743240;81;21137;-65
2020/12/21 09:40:00;;;;;;;10.23;7.53;;;;;;;-1.30;75.28;102010.06;1707472;83;21205;-64
2020/12/21 09:42:27;;;;;;;8.90;6.75;;;;;;;-1.35;75.19;102019.61;1731207;81;21893;-66
2020/12/21 09:44:56;;;;;;;10.45;7.00;;;;;;;-1.37;75.20;102016.58;1726589;83;21182;-64
2020/12/21 09:47:23;;;;;;;9.38;6.92;;;;;;;-1.38;75.19;102023.48;1737359;81;21142;-65
2020/12/21 09:49:53;;;;;;;8.88;6.65;;;;;;;-1.36;75.20;102020.45;1756677;81;21161;-65
2020/12/21 09:52:22;;;;;;;9.10;6.28;;;;;;;-1.33;75.16;102024.78;1756717;81;21138;-65
2020/12/21 09:54:50;;;;;;;9.75;7.47;;;;;;;-1.34;75.16;102013.55;1756685;81;22070;-66
2020/12/21 09:57:19;;;;;;;10.32;7.75;;;;;;;-1.37;74.95;102014.84;1739886;81;21161;-65
2020/12/21 09:59:47;;;;;;;10.03;7.08;;;;;;;-1.40;75.01;102012.27;1733619;81;21060;-66
2020/12/21 10:02:15;;;;;;;9.28;7.25;;;;;;;-1.41;75.03;102013.14;1737122;81;21090;-66
2020/12/21 10:04:43;;;;;;;10.13;7.53;;;;;;;-1.41;75.04;102004.08;1743809;81;21110;-67
2020/12/21 10:07:11;;;;;;;7.53;5.90;;;;;;;-1.45;75.14;102006.23;1719128;81;22061;-66
2020/12/21 10:09:38;;;;;;;8.83;7.22;;;;;;;-1.45;75.00;102008.42;1743456;81;22651;-67
2020/12/21 10:12:06;;;;;;;10.40;7.45;;;;;;;-1.51;74.91;102010.16;1727224;81;21125;-67
2020/12/21 10:14:34;;;;;;;10.80;8.53;;;;;;;-1.54;74.98;102012.77;1730343;81;21148;-67
2020/12/21 10:17:05;;;;;;;10.63;7.70;;;;;;;-1.59;74.97;102010.61;1740067;81;21133;-67
2020/12/21 10:19:34;;;;;;;10.95;7.83;;;;;;;-1.62;75.05;102008.05;1748314;81;22872;-67
2020/12/21 10:22:03;;;;;;;8.98;7.22;;;;;;;-1.60;75.16;102010.19;1759830;80;21141;-67
2020/12/21 10:24:33;;;;;;;9.68;7.90;;;;;;;-1.60;75.07;102007.59;1784638;80;21121;-67
2020/12/21 10:27:01;;;;;;;11.85;8.33;;;;;;;-1.64;75.00;102012.34;1762418;80;21132;-67
2020/12/21 10:29:30;;;;;;;6.92;5.15;;;;;;;-1.69;74.96;102007.19;1762550;80;21141;-67
2020/12/21 10:32:00;;;;;;;10.15;7.35;;;;;;;-1.73;74.90;102009.37;1757670;80;24228;-67
2020/12/21 10:34:28;;;;;;;10.43;7.87;;;;;;;-1.78;74.68;102010.66;1760722;80;21079;-69
2020/12/21 10:36:56;;;;;;;6.65;5.40;;;;;;;-1.81;74.78;102007.23;1777615;80;21205;-63
2020/12/21 10:39:23;;;;;;;10.43;7.62;;;;;;;-1.82;74.89;102008.95;1764014;80;21149;-66
2020/12/21 10:41:51;;;;;;;9.23;7.78;;;;;;;-1.81;74.77;102021.04;1772322;80;21137;-66
2020/12/21 10:44:18;;;;;;;9.05;7.65;;;;;;;-1.80;74.83;102014.98;1763241;80;23139;-65
2020/12/21 10:46:46;;;;;;;9.85;7.87;;;;;;;-1.81;74.65;102008.52;1765662;80;21081;-67
2020/12/21 10:49:14;;;;;;;9.55;7.00;;;;;;;-1.81;74.62;102006.80;1762927;80;21150;-66
2020/12/21 10:51:43;;;;;;;8.45;6.75;;;;;;;-1.81;74.39;102013.27;1782050;80;21157;-67
2020/12/21 10:54:10;;;;;;;8.08;5.95;;;;;;;-1.84;74.15;102009.80;1777983;80;21152;-66
2020/12/21 10:56:38;;;;;;;9.03;6.25;;;;;;;-1.91;73.89;102005.09;1787233;80;22035;-66
2020/12/21 10:59:08;;;;;;;7.33;6.55;;;;;;;-1.97;73.90;102010.27;1786874;80;21102;-68
2020/12/21 11:01:36;;;;;;;8.88;6.87;;;;;;;-2.02;73.79;102004.25;1784625;80;21510;-69
2020/12/21 11:04:03;;;;;;;6.53;4.78;;;;;;;-2.03;73.77;102007.67;1753032;81;21113;-67
2020/12/21 11:06:31;;;;;;;6.12;5.00;;;;;;;-2.02;73.66;102009.43;1742158;81;21118;-67
2020/12/21 11:09:02;;;;;;;7.10;5.53;;;;;;;-2.09;73.52;102007.70;1747444;81;21905;-67
2020/12/21 11:11:33;;;;;;;6.33;5.08;;;;;;;-2.18;73.44;102005.98;1734105;82;21149;-67
2020/12/21 11:14:03;;;;;;;5.67;4.45;;;;;;;-2.27;73.37;102005.99;1734252;82;21154;-66
2020/12/21 11:16:32;;;;;;;7.87;5.45;;;;;;;-2.35;73.29;102003.40;1733387;82;22622;-66
2020/12/21 11:19:00;;;;;;;7.45;5.83;;;;;;;-2.43;73.30;102003.83;1733969;82;21152;-66
2020/12/21 11:21:27;;;;;;;7.30;5.15;;;;;;;-2.47;73.46;102002.11;1734294;82;22076;-66
2020/12/21 11:23:58;;;;;;;4.85;4.35;;;;;;;-2.48;73.50;101999.53;1743608;81;21078;-66